• Join FlightAware (Why Join?)
  • Login
  • US Flag 
03:23AM EST


 

Airport Tracker/Info


-or-


 

Live Flight TrackerFlight Track Log ✈ UPS1121 ✈ 27-Jun-2013 ✈ KBDL - KPHL

Flight Track Log - Related Links

Times and Time Zones

All times are in EDT time to prevent confusion due to time zone crossing. See the UPS1121 flight status page for this flight to view local times or setup timezone preferences in your user account.

Time Position Orientation Groundspeed Altitude Reporting Facility
EDT Latitude Longitude Course Direction KTS MPH feet Rate Location/Type
10:00PM 41.9561 -72.7164 320° Northwest 173 199 1,700  Level Boston Center
10:01PM 41.9956 -72.7614 320° Northwest 200 230 3,700 2,460 Climbing Boston Center
10:07PM 42.2760 -73.2330 320° Northwest 387 445 18,900 2,460 Climbing FlightAware
10:07PM 42.2710 -73.3280 266° West 395 455 20,100 1,800 Climbing FlightAware
10:08PM 42.2660 -73.4400 267° West 404 465 21,400 1,260 Climbing FlightAware
10:09PM 42.2600 -73.5520 266° West 410 472 22,000 420 Climbing FlightAware
10:09PM 42.2550 -73.6420 266° West 439 505 22,000  Level FlightAware
10:10PM 42.2480 -73.7760 266° West 449 517 22,000  Level FlightAware
10:11PM 42.2400 -73.9260 266° West 449 517 22,000  Level FlightAware
10:12PM 42.2350 -74.0330 266° West 449 517 22,000  Level FlightAware
10:13PM 42.2300 -74.1260 266° West 449 517 22,000  Level FlightAware
10:13PM 42.2260 -74.2120 266° West 449 517 22,000  Level FlightAware
10:14PM 42.2200 -74.3260 266° West 449 517 22,000  Level FlightAware
10:16PM 42.1620 -74.6250 255° West 386 444 22,000  Level FlightAware
10:16PM 42.1350 -74.6940 242° Southwest 386 444 22,000  Level FlightAware
10:18PM 42.0830 -74.8260 242° Southwest 386 444 22,000 -60 Level FlightAware
10:18PM 42.0290 -74.9680 243° Southwest 399 459 21,900 -1,140 Descending FlightAware
10:19PM 41.9910 -75.0630 242° Southwest 396 456 20,300 -1,980 Descending FlightAware
10:20PM 41.9390 -75.1500 231° Southwest 363 418 19,000 -900 Descending FlightAware
10:21PM 41.8800 -75.1990 212° Southwest 359 413 19,000 -900 Level FlightAware
10:21PM 41.8100 -75.2560 211° Southwest 368 423 17,700 -1,800 Descending FlightAware
10:22PM 41.7500 -75.3060 212° Southwest 369 425 16,300 -1,020 Descending FlightAware
10:23PM 41.6960 -75.3490 211° Southwest 369 425 16,300 -780 Level FlightAware
10:23PM 41.6430 -75.3920 211° Southwest 357 411 15,300 -720 Descending FlightAware
10:24PM 41.5860 -75.4390 212° Southwest 357 411 15,300  Level FlightAware
10:25PM 41.5420 -75.4730 210° Southwest 357 411 15,300  Level FlightAware
10:26PM 41.4850 -75.5200 212° Southwest 357 411 15,300 -1,440 Level FlightAware
10:27PM 41.3210 -75.4460 161° South 332 382 12,300 -1,500 Descending FlightAware
10:28PM 41.2480 -75.4450 179° South 345 397 12,300  Level FlightAware
10:28PM 41.1760 -75.4440 179° South 352 405 12,300  Level FlightAware
10:29PM 41.1090 -75.4430 179° South 355 409 12,300  Level FlightAware
10:30PM 41.0536 -75.4427 180° South 359 413 12,300 -300 Level FlightAware ADS-B
10:30PM 40.9992 -75.4418 179° South 361 415 12,000 -780 Descending FlightAware ADS-B
10:31PM 40.9476 -75.4406 179° South 356 410 11,500 -780 Descending FlightAware ADS-B
10:31PM 40.8932 -75.4406 180° South 348 400 11,200 -600 Descending FlightAware ADS-B
10:32PM 40.8427 -75.4412 181° South 349 402 10,900 -540 Descending FlightAware ADS-B
10:32PM 40.7939 -75.4409 180° South 343 395 10,700 -540 Descending FlightAware ADS-B
10:33PM 40.7452 -75.4396 179° South 343 395 10,400 -420 Descending FlightAware ADS-B
10:33PM 40.6950 -75.4379 179° South 343 395 10,300 -120 Descending FlightAware ADS-B
10:34PM 40.6463 -75.4359 178° South 346 398 10,300  Level FlightAware ADS-B
10:34PM 40.5974 -75.4341 178° South 346 398 10,300  Level FlightAware ADS-B
10:35PM 40.5492 -75.4329 179° South 345 397 10,300  Level FlightAware ADS-B
10:35PM 40.5038 -75.4326 180° South 313 360 10,300  Level FlightAware ADS-B
10:36PM 40.4624 -75.4324 180° South 285 328 10,300  Level FlightAware ADS-B
10:36PM 40.4294 -75.4323 180° South 283 326 10,300  Level FlightAware ADS-B
10:37PM 40.4004 -75.4322 180° South 285 328 10,300  Level FlightAware ADS-B
10:37PM 40.3949 -75.4316 175° South 286 329 10,300  Level FlightAware ADS-B
10:37PM 40.3786 -75.4273 169° South 292 336 10,300  Level FlightAware ADS-B
10:37PM 40.3392 -75.4115 163° South 294 338 10,300  Level FlightAware ADS-B
10:38PM 40.2977 -75.3945 163° South 294 338 10,300 -420 Level FlightAware ADS-B
10:38PM 40.2758 -75.3858 163° South 289 333 10,000 -1,140 Descending FlightAware ADS-B
10:38PM 40.2566 -75.3782 163° South 287 330 9,700 -1,380 Descending FlightAware ADS-B
10:39PM 40.2367 -75.3701 163° South 286 329 9,300 -1,560 Descending FlightAware ADS-B
10:39PM 40.2175 -75.3620 162° South 285 328 8,900 -1,440 Descending FlightAware ADS-B
10:39PM 40.1980 -75.3539 162° South 284 327 8,600 -1,560 Descending FlightAware ADS-B
10:39PM 40.1779 -75.3454 162° South 285 328 8,100 -1,680 Descending FlightAware ADS-B
10:40PM 40.1568 -75.3365 162° South 284 327 7,700 -1,380 Descending FlightAware ADS-B
10:40PM 40.1401 -75.3294 162° South 283 326 7,400 -1,260 Descending FlightAware ADS-B
10:40PM 40.1212 -75.3214 162° South 283 326 7,100 -1,200 Descending FlightAware ADS-B
10:40PM 40.1021 -75.3134 162° South 281 323 6,800 -1,140 Descending FlightAware ADS-B
10:41PM 40.0884 -75.3076 162° South 278 320 6,600 -1,140 Descending FlightAware ADS-B
10:41PM 40.0697 -75.2997 162° South 275 316 6,300 -600 Descending FlightAware ADS-B
10:41PM 40.0511 -75.2920 162° South 281 323 6,300  Level FlightAware ADS-B
10:41PM 40.0325 -75.2844 163° South 281 323 6,300  Level FlightAware ADS-B
10:42PM 40.0138 -75.2768 163° South 278 320 6,300  Level FlightAware ADS-B
10:42PM 40.0011 -75.2710 161° South 281 323 6,300  Level FlightAware ADS-B
10:42PM 39.9967 -75.2681 153° Southeast 282 325 6,300  Level FlightAware ADS-B
10:42PM 39.9932 -75.2653 148° Southeast 282 325 6,300  Level FlightAware ADS-B
10:42PM 39.9899 -75.2619 142° Southeast 282 325 6,300  Level FlightAware ADS-B
10:42PM 39.9855 -75.2562 135° Southeast 280 322 6,300  Level FlightAware ADS-B
10:42PM 39.9825 -75.2511 128° Southeast 280 322 6,300  Level FlightAware ADS-B
10:42PM 39.9801 -75.2459 121° Southeast 278 320 6,300  Level FlightAware ADS-B
10:42PM 39.9778 -75.2392 114° Southeast 277 319 6,300  Level FlightAware ADS-B
10:42PM 39.9766 -75.2344 108° East 276 318 6,300  Level FlightAware ADS-B
10:42PM 39.9758 -75.2285 100° East 273 314 6,300  Level FlightAware ADS-B
10:42PM 39.9754 -75.2232 96° East 272 313 6,300  Level FlightAware ADS-B
10:42PM 39.9754 -75.2179 90° East 271 312 6,300  Level FlightAware ADS-B
10:43PM 39.9758 -75.2123 85° East 269 310 6,300  Level FlightAware ADS-B
10:43PM 39.9769 -75.2040 80° East 266 306 6,300  Level FlightAware ADS-B
10:43PM 39.9805 -75.1807 79° East 258 297 6,300  Level FlightAware ADS-B
10:43PM 39.9840 -75.1572 79° East 256 295 6,300  Level FlightAware ADS-B
10:43PM 39.9876 -75.1342 78° East 246 283 6,300  Level FlightAware ADS-B
10:44PM 39.9909 -75.1122 79° East 237 273 6,300  Level FlightAware ADS-B
10:44PM 39.9947 -75.0878 79° East 234 269 6,300  Level FlightAware ADS-B
10:44PM 39.9981 -75.0656 79° East 234 269 6,300  Level FlightAware ADS-B
10:45PM 40.0023 -75.0391 78° East 235 270 6,300 -240 Level FlightAware ADS-B
10:45PM 40.0046 -75.0249 78° East 234 269 6,200 -660 Descending FlightAware ADS-B
10:45PM 40.0086 -75.0002 78° East 233 268 6,000 -720 Descending FlightAware ADS-B
10:45PM 40.0120 -74.9785 78° East 231 266 5,800 -960 Descending FlightAware ADS-B
10:46PM 40.0156 -74.9558 78° East 230 265 5,500 -900 Descending FlightAware ADS-B
10:46PM 40.0167 -74.9487 79° East 229 264 5,500 -720 Level FlightAware ADS-B
10:46PM 40.0192 -74.9327 78° East 228 262 5,300 -780 Descending FlightAware ADS-B
10:46PM 40.0198 -74.9284 80° East 228 262 5,300  Level FlightAware ADS-B
10:46PM 40.0228 -74.9090 79° East 233 268 5,300  Level FlightAware ADS-B
10:46PM 40.0231 -74.9071 78° East 231 266 5,300  Level FlightAware ADS-B
10:46PM 40.0259 -74.8884 79° East 234 269 5,300  Level FlightAware ADS-B
10:46PM 40.0265 -74.8791 85° East 233 268 5,300  Level FlightAware ADS-B
10:47PM 40.0262 -74.8740 94° East 230 265 5,300  Level FlightAware ADS-B
10:47PM 40.0249 -74.8674 104° East 224 258 5,300  Level FlightAware ADS-B
10:47PM 40.0234 -74.8630 114° Southeast 219 252 5,300  Level FlightAware ADS-B
10:47PM 40.0212 -74.8587 124° Southeast 215 247 5,300  Level FlightAware ADS-B
10:47PM 40.0179 -74.8541 133° Southeast 209 241 5,300  Level FlightAware ADS-B
10:47PM 40.0152 -74.8513 142° Southeast 202 232 5,300 -600 Level FlightAware ADS-B
10:47PM 40.0096 -74.8473 151° Southeast 196 226 5,200 -600 Descending FlightAware ADS-B
10:47PM 40.0069 -74.8457 156° South 195 224 5,200 -420 Level FlightAware ADS-B
10:47PM 39.9974 -74.8403 156° South 193 222 5,100 -600 Descending FlightAware ADS-B
10:47PM 39.9891 -74.8361 159° South 189 217 5,000 -960 Descending FlightAware ADS-B
10:47PM 39.9863 -74.8351 165° South 185 213 4,900 -900 Descending FlightAware ADS-B
10:48PM 39.9835 -74.8347 174° South 178 205 4,900 -780 Level FlightAware ADS-B
10:48PM 39.9802 -74.8348 181° South 173 199 4,800 -1,380 Descending FlightAware ADS-B
10:48PM 39.9762 -74.8362 195° South 165 190 4,700 -1,200 Descending FlightAware ADS-B
10:48PM 39.9730 -74.8384 208° Southwest 160 184 4,600 -780 Descending FlightAware ADS-B
10:48PM 39.9668 -74.8447 218° Southwest 158 182 4,500 -660 Descending FlightAware ADS-B
10:48PM 39.9574 -74.8562 223° Southwest 163 188 4,300 -360 Descending FlightAware ADS-B
10:49PM 39.9488 -74.8688 228° Southwest 159 183 4,300 -240 Level FlightAware ADS-B
10:49PM 39.9454 -74.8766 240° Southwest 156 180 4,200 -600 Descending FlightAware ADS-B
10:49PM 39.9419 -74.8873 247° West 153 176 4,100 -660 Descending FlightAware ADS-B
10:49PM 39.9405 -74.8925 251° West 153 176 4,000 -1,200 Descending FlightAware ADS-B
10:49PM 39.9396 -74.8964 253° West 153 176 3,900 -900 Descending FlightAware ADS-B
10:49PM 39.9369 -74.9108 256° West 153 176 3,700 -840 Descending FlightAware ADS-B
10:50PM 39.9346 -74.9226 256° West 154 177 3,500 -960 Descending FlightAware ADS-B
10:50PM 39.9323 -74.9339 255° West 155 178 3,300 -480 Descending FlightAware ADS-B
10:50PM 39.9296 -74.9480 256° West 161 185 3,300  Level FlightAware ADS-B
10:50PM 39.9269 -74.9622 256° West 158 182 3,300  Level FlightAware ADS-B
10:51PM 39.9239 -74.9767 255° West 156 180 3,300  Level FlightAware ADS-B
10:51PM 39.9213 -74.9897 255° West 155 178 3,300  Level FlightAware ADS-B
10:51PM 39.9186 -75.0037 256° West 154 177 3,300  Level FlightAware ADS-B
10:51PM 39.9158 -75.0184 256° West 150 173 3,300 -360 Level FlightAware ADS-B
10:52PM 39.9101 -75.0470 255° West 152 175 3,000 -660 Descending FlightAware ADS-B
10:52PM 39.9075 -75.0603 256° West 151 174 2,800 -780 Descending FlightAware ADS-B
10:52PM 39.9048 -75.0743 256° West 152 175 2,600 -960 Descending FlightAware ADS-B
10:53PM 39.9019 -75.0884 255° West 153 176 2,300 -960 Descending FlightAware ADS-B
10:53PM 39.8990 -75.1029 255° West 149 171 2,100 -780 Descending FlightAware ADS-B
10:53PM 39.8963 -75.1166 256° West 144 166 1,900 -600 Descending FlightAware ADS-B
10:53PM 39.8955 -75.1208 256° West 138 159 1,900 -420 Level FlightAware ADS-B
10:53PM 39.8941 -75.1282 256° West 129 148 1,800 -720 Descending FlightAware ADS-B
10:54PM 39.8920 -75.1385 255° West 108 124 1,600 -600 Descending FlightAware ADS-B
10:54PM 39.8902 -75.1475 255° West 101 116 1,500 -420 Descending FlightAware ADS-B
10:54PM 39.8884 -75.1568 256° West 102 117 1,400 -660 Descending FlightAware ADS-B
10:54PM 39.8871 -75.1637 256° West 103 119 1,200 -720 Descending FlightAware ADS-B
10:55PM 39.8853 -75.1727 255° West 105 121 1,100 -420 Descending FlightAware ADS-B
10:55PM 39.8833 -75.1826 255° West 107 123 1,000 -600 Descending FlightAware ADS-B
10:55PM 39.8811 -75.1933 255° West 108 124 800 -600 Descending FlightAware ADS-B
10:55PM 39.8792 -75.2030 256° West 114 131 700 -300 Descending FlightAware ADS-B
10:56PM 39.8770 -75.2180 259° West 108 124 600 -240 Descending FlightAware
11:03PM 39.8667 -75.2333 247° West  Level FlightAware Approximate
11:04PM 39.8722 -75.2409 247° West  Level Estimated